createdAt,value
2023-05-14T00:02:19.532Z,6.80
2023-05-14T00:04:47.083Z,7.37
2023-05-14T00:07:14.817Z,5.63
2023-05-14T00:09:42.578Z,5.57
2023-05-14T00:12:10.140Z,6.73
2023-05-14T00:14:37.597Z,7.40
2023-05-14T00:17:04.961Z,5.57
2023-05-14T00:19:32.309Z,5.07
2023-05-14T00:21:59.766Z,5.43
2023-05-14T00:24:27.119Z,5.27
2023-05-14T00:26:54.790Z,6.80
2023-05-14T00:29:22.220Z,4.80
2023-05-14T00:31:49.610Z,6.20
2023-05-14T00:34:17.209Z,7.43
2023-05-14T00:36:44.385Z,6.00
2023-05-14T00:39:11.858Z,5.43
2023-05-14T00:41:39.347Z,7.13
2023-05-14T00:44:06.823Z,4.83
2023-05-14T00:46:34.192Z,5.13
2023-05-14T00:49:01.645Z,4.63
2023-05-14T00:51:28.837Z,6.87
2023-05-14T00:53:56.230Z,4.53
2023-05-14T00:56:23.741Z,6.07
2023-05-14T00:58:50.857Z,5.90
2023-05-14T01:01:18.426Z,5.70
2023-05-14T01:03:45.819Z,4.47
2023-05-14T01:06:22.242Z,5.33
2023-05-14T01:09:04.086Z,4.63
2023-05-14T01:12:00.879Z,5.50
2023-05-14T01:14:54.472Z,5.40
2023-05-14T01:17:23.257Z,7.27
2023-05-14T01:19:50.670Z,4.70
2023-05-14T01:22:18.309Z,5.20
2023-05-14T01:24:45.752Z,5.93
2023-05-14T01:27:27.520Z,5.53
2023-05-14T01:30:17.249Z,7.30
2023-05-14T01:32:45.309Z,4.90
2023-05-14T01:35:13.126Z,4.60
2023-05-14T01:37:40.524Z,5.47
2023-05-14T01:40:08.702Z,5.20
2023-05-14T01:42:36.645Z,5.00
2023-05-14T01:45:04.070Z,5.97
2023-05-14T01:47:31.547Z,5.17
2023-05-14T01:49:58.997Z,4.27
2023-05-14T01:52:26.217Z,8.17
2023-05-14T01:54:53.594Z,5.87
2023-05-14T01:57:21.847Z,4.60
2023-05-14T01:59:49.375Z,4.80
2023-05-14T02:02:16.586Z,5.33
2023-05-14T02:04:43.945Z,5.03
2023-05-14T02:07:11.231Z,5.97
2023-05-14T02:09:39.033Z,5.10
2023-05-14T02:12:07.330Z,5.53
2023-05-14T02:14:34.540Z,4.43
2023-05-14T02:17:01.953Z,5.47
2023-05-14T02:19:29.700Z,4.43
2023-05-14T02:21:56.956Z,4.40
2023-05-14T02:24:24.276Z,4.83
2023-05-14T02:26:51.744Z,4.27
2023-05-14T02:29:19.114Z,5.67
2023-05-14T02:31:46.440Z,5.30
2023-05-14T02:34:13.862Z,6.13
2023-05-14T02:36:41.620Z,4.47
2023-05-14T02:39:08.988Z,4.80
2023-05-14T02:41:36.564Z,6.17
2023-05-14T02:44:03.881Z,6.33
2023-05-14T02:46:34.243Z,5.73
2023-05-14T02:49:02.106Z,5.43
2023-05-14T02:51:29.559Z,5.23
2023-05-14T02:53:56.869Z,5.93
2023-05-14T02:56:24.288Z,7.10
2023-05-14T02:58:51.933Z,5.27
2023-05-14T03:01:19.176Z,7.37
2023-05-14T03:03:47.024Z,4.53
2023-05-14T03:06:14.465Z,5.70
2023-05-14T03:08:41.810Z,6.93
2023-05-14T03:11:09.243Z,5.17
2023-05-14T03:13:36.397Z,5.33
2023-05-14T03:16:03.648Z,5.13
2023-05-14T03:18:31.338Z,5.10
2023-05-14T03:20:58.700Z,8.17
2023-05-14T03:23:25.847Z,8.50
2023-05-14T03:25:54.207Z,23.30
2023-05-14T03:28:21.567Z,33.43
2023-05-14T03:30:48.780Z,34.20
2023-05-14T03:33:16.208Z,17.43
2023-05-14T03:35:43.566Z,16.50
2023-05-14T03:38:10.734Z,10.13
2023-05-14T03:40:37.821Z,20.63
2023-05-14T03:43:05.234Z,16.90
2023-05-14T03:45:33.307Z,14.73
2023-05-14T03:48:00.897Z,9.33
2023-05-14T03:50:29.655Z,8.97
2023-05-14T03:52:56.850Z,9.63
2023-05-14T03:55:24.247Z,8.30
2023-05-14T03:57:51.512Z,8.10
2023-05-14T04:00:19.173Z,7.07
2023-05-14T04:02:46.398Z,7.50
2023-05-14T04:05:13.780Z,19.77
2023-05-14T04:07:40.989Z,28.43
2023-05-14T04:10:08.797Z,23.77
2023-05-14T04:12:35.987Z,30.73
2023-05-14T04:15:03.271Z,18.90
2023-05-14T04:17:30.845Z,28.07
2023-05-14T04:19:58.471Z,26.03
2023-05-14T04:22:25.916Z,19.87
2023-05-14T04:24:53.598Z,35.53
2023-05-14T04:27:23.867Z,28.40
2023-05-14T04:29:51.058Z,13.13
2023-05-14T04:32:18.460Z,41.10
2023-05-14T04:34:47.236Z,29.50
2023-05-14T04:37:14.909Z,14.03
2023-05-14T04:39:42.251Z,16.83
2023-05-14T04:42:09.684Z,9.10
2023-05-14T04:44:37.779Z,9.67
2023-05-14T04:47:05.446Z,7.73
2023-05-14T04:49:33.709Z,7.47
2023-05-14T04:52:01.992Z,6.43
2023-05-14T04:54:29.217Z,6.93
2023-05-14T04:56:56.749Z,6.90
2023-05-14T04:59:24.073Z,6.27
2023-05-14T05:01:52.083Z,6.60
2023-05-14T05:04:19.776Z,8.20
2023-05-14T05:06:47.579Z,6.60
2023-05-14T05:09:15.685Z,8.30
2023-05-14T05:11:43.143Z,9.13
2023-05-14T05:14:10.462Z,7.23
2023-05-14T05:16:37.794Z,11.90
2023-05-14T05:19:05.349Z,8.00
2023-05-14T05:21:32.560Z,7.00
2023-05-14T05:23:59.751Z,6.93
2023-05-14T05:26:27.688Z,7.80
2023-05-14T05:28:55.144Z,7.20
2023-05-14T05:31:22.372Z,7.40
2023-05-14T05:33:49.899Z,6.33
2023-05-14T05:36:17.183Z,7.90
2023-05-14T05:38:44.653Z,6.97
2023-05-14T05:41:12.166Z,9.13
2023-05-14T05:43:39.604Z,7.00
2023-05-14T05:46:07.741Z,7.83
2023-05-14T05:48:35.194Z,6.47
2023-05-14T05:51:02.339Z,6.53
2023-05-14T05:53:29.595Z,6.47
2023-05-14T05:55:57.052Z,6.73
2023-05-14T05:58:24.306Z,6.90
2023-05-14T06:00:52.055Z,5.73
2023-05-14T06:03:19.528Z,6.67
2023-05-14T06:05:47.069Z,5.40
2023-05-14T06:08:14.899Z,6.97
2023-05-14T06:10:42.497Z,5.53
2023-05-14T06:13:09.929Z,5.33
2023-05-14T06:15:37.547Z,4.40
2023-05-14T06:18:05.661Z,4.53
2023-05-14T06:20:33.094Z,4.57
2023-05-14T06:23:00.398Z,4.57
2023-05-14T06:25:27.733Z,3.60
2023-05-14T06:27:55.480Z,3.90
2023-05-14T06:30:23.327Z,3.83
2023-05-14T06:32:51.135Z,4.45
2023-05-14T06:35:21.304Z,4.57
2023-05-14T06:37:48.529Z,4.10
2023-05-14T06:40:16.202Z,3.90
2023-05-14T06:42:43.713Z,3.95
2023-05-14T06:45:11.635Z,3.85
2023-05-14T06:47:38.836Z,5.10
2023-05-14T06:50:07.171Z,3.95
2023-05-14T06:52:35.795Z,4.25
2023-05-14T06:55:03.298Z,4.40
2023-05-14T06:57:30.753Z,3.92
2023-05-14T06:59:58.110Z,5.25
2023-05-14T07:02:25.686Z,5.85
2023-05-14T07:04:53.175Z,4.72
2023-05-14T07:07:21.602Z,6.07
2023-05-14T07:09:49.220Z,6.27
2023-05-14T07:12:16.642Z,4.03
2023-05-14T07:14:44.001Z,4.13
2023-05-14T07:17:11.594Z,5.90
2023-05-14T07:19:38.984Z,3.90
2023-05-14T07:22:06.172Z,4.17
2023-05-14T07:24:33.332Z,4.20
2023-05-14T07:27:02.132Z,4.33
2023-05-14T07:29:30.730Z,5.33
2023-05-14T07:31:58.142Z,4.57
2023-05-14T07:34:25.516Z,4.07
2023-05-14T07:36:53.387Z,4.57
2023-05-14T07:39:20.703Z,3.57
2023-05-14T07:41:48.336Z,5.43
2023-05-14T07:44:15.634Z,3.47
2023-05-14T07:46:43.310Z,5.07
2023-05-14T07:49:10.832Z,4.50
2023-05-14T07:51:38.341Z,4.73
2023-05-14T07:54:06.074Z,5.17
2023-05-14T07:56:33.513Z,5.70
2023-05-14T07:59:00.978Z,4.23
2023-05-14T08:01:28.549Z,3.50
2023-05-14T08:03:56.124Z,3.67
2023-05-14T08:06:24.846Z,3.83
2023-05-14T08:08:52.266Z,3.57
2023-05-14T08:11:19.760Z,3.70
2023-05-14T08:13:47.111Z,3.70
2023-05-14T08:16:14.653Z,2.83
2023-05-14T08:18:42.147Z,2.50
2023-05-14T08:21:09.713Z,2.90
2023-05-14T08:23:36.956Z,2.50
2023-05-14T08:26:04.211Z,5.63
2023-05-14T08:28:31.621Z,4.10
2023-05-14T08:30:59.052Z,2.70
2023-05-14T08:33:26.532Z,2.93
2023-05-14T08:35:54.400Z,2.90
2023-05-14T08:38:21.642Z,2.80
2023-05-14T08:40:58.953Z,3.23
2023-05-14T08:43:59.036Z,3.17
2023-05-14T08:46:26.391Z,5.20
2023-05-14T08:48:58.705Z,3.93
2023-05-14T08:51:26.778Z,2.60
2023-05-14T08:53:54.191Z,2.83
2023-05-14T08:56:22.345Z,3.10
2023-05-14T08:58:49.941Z,3.13
2023-05-14T09:01:17.473Z,2.87
2023-05-14T09:04:15.116Z,2.50
2023-05-14T09:06:42.692Z,2.60
2023-05-14T09:09:10.612Z,2.73
2023-05-14T09:11:47.411Z,3.30
2023-05-14T09:14:14.875Z,4.27
2023-05-14T09:16:43.364Z,4.53
2023-05-14T09:19:11.038Z,3.23
2023-05-14T09:21:38.449Z,3.93
2023-05-14T09:24:06.411Z,3.70
2023-05-14T09:26:34.528Z,4.20
2023-05-14T09:29:05.431Z,3.83
2023-05-14T09:31:33.481Z,3.73
2023-05-14T09:34:00.946Z,3.27
2023-05-14T09:36:28.161Z,4.37
2023-05-14T09:38:58.614Z,4.50
2023-05-14T09:41:26.206Z,3.77
2023-05-14T09:43:53.925Z,4.37
2023-05-14T09:46:22.177Z,5.63
2023-05-14T09:48:49.669Z,2.77
2023-05-14T09:51:21.305Z,4.53
2023-05-14T09:53:48.804Z,4.30
2023-05-14T09:56:16.971Z,4.30
2023-05-14T09:58:44.490Z,4.23
2023-05-14T10:01:11.974Z,4.87
2023-05-14T10:03:39.240Z,4.87
2023-05-14T10:06:19.473Z,6.30
2023-05-14T10:08:47.467Z,4.77
2023-05-14T10:11:18.166Z,5.60
2023-05-14T10:13:49.074Z,6.10
2023-05-14T10:16:26.166Z,5.97
2023-05-14T10:18:57.329Z,4.50
2023-05-14T10:21:25.056Z,6.23
2023-05-14T10:23:52.660Z,5.00
2023-05-14T10:26:21.210Z,4.20
2023-05-14T10:28:49.946Z,5.30
2023-05-14T10:31:17.631Z,5.13
2023-05-14T10:33:50.711Z,5.50
2023-05-14T10:36:18.986Z,6.77
2023-05-14T10:38:46.572Z,5.07
2023-05-14T10:41:21.763Z,5.20
2023-05-14T10:43:49.264Z,5.20
2023-05-14T10:46:16.657Z,5.77
2023-05-14T10:48:44.201Z,4.57
2023-05-14T10:51:11.715Z,5.43
2023-05-14T10:53:40.508Z,5.20
2023-05-14T10:56:09.377Z,4.83
2023-05-14T10:58:43.757Z,3.87
2023-05-14T11:01:12.347Z,3.87
2023-05-14T11:03:44.811Z,4.23
2023-05-14T11:06:14.495Z,4.07
2023-05-14T11:08:41.973Z,4.47
2023-05-14T11:11:09.398Z,11.77
2023-05-14T11:13:36.805Z,3.77
2023-05-14T11:16:15.657Z,3.97
2023-05-14T11:18:55.302Z,5.20
2023-05-14T11:21:22.761Z,2.50
2023-05-14T11:23:50.318Z,2.50
2023-05-14T11:26:19.411Z,3.67
2023-05-14T11:28:48.308Z,4.10
2023-05-14T11:31:15.809Z,5.53
2023-05-14T11:33:43.145Z,5.43
2023-05-14T11:36:12.287Z,3.33
2023-05-14T11:38:49.418Z,3.57
2023-05-14T11:41:17.046Z,3.20
2023-05-14T11:43:44.429Z,2.47
2023-05-14T11:46:18.382Z,2.60
2023-05-14T11:48:46.155Z,2.33
2023-05-14T11:51:13.691Z,3.43
2023-05-14T11:53:41.275Z,2.20
2023-05-14T11:56:10.013Z,3.00
2023-05-14T11:58:37.617Z,2.20
2023-05-14T12:01:04.958Z,2.60
2023-05-14T12:03:32.808Z,3.07
2023-05-14T12:06:01.298Z,2.73
2023-05-14T12:08:32.255Z,3.20
2023-05-14T12:11:00.735Z,1.70
2023-05-14T12:13:31.619Z,2.33
2023-05-14T12:16:01.167Z,3.17
2023-05-14T12:18:30.221Z,2.07
2023-05-14T12:21:05.006Z,1.90
2023-05-14T12:23:32.808Z,4.30
2023-05-14T12:26:07.194Z,2.90
2023-05-14T12:28:38.665Z,2.40
2023-05-14T12:31:06.594Z,2.90
2023-05-14T12:33:34.186Z,2.27
2023-05-14T12:36:19.848Z,2.10
2023-05-14T12:38:49.599Z,3.20
2023-05-14T12:41:18.103Z,2.97
2023-05-14T12:43:45.673Z,2.83
2023-05-14T12:46:13.038Z,3.50
2023-05-14T12:48:40.497Z,5.23
2023-05-14T12:51:08.078Z,3.87
2023-05-14T12:53:38.604Z,2.70
2023-05-14T12:56:06.475Z,2.30
2023-05-14T12:58:33.756Z,2.27
2023-05-14T13:01:01.184Z,3.57
2023-05-14T13:03:28.742Z,4.53
2023-05-14T13:05:56.686Z,4.30
2023-05-14T13:08:26.527Z,3.40
2023-05-14T13:10:54.179Z,2.20
2023-05-14T13:13:21.860Z,1.37
2023-05-14T13:15:49.470Z,1.37
2023-05-14T13:18:17.778Z,3.17
2023-05-14T13:20:47.602Z,1.20
2023-05-14T13:23:15.301Z,1.07
2023-05-14T13:25:42.715Z,1.93
2023-05-14T13:28:10.036Z,2.23
2023-05-14T13:30:37.841Z,1.73
2023-05-14T13:33:05.591Z,1.07
2023-05-14T13:35:33.300Z,1.43
2023-05-14T13:38:00.789Z,1.83
2023-05-14T13:40:27.981Z,3.57
2023-05-14T13:42:55.536Z,3.33
2023-05-14T13:45:23.153Z,4.07
2023-05-14T13:47:51.612Z,4.50
2023-05-14T13:50:19.398Z,2.07
2023-05-14T13:52:46.616Z,1.30
2023-05-14T13:55:13.833Z,1.30
2023-05-14T13:57:42.097Z,1.07
2023-05-14T14:00:09.777Z,1.27
2023-05-14T14:02:37.078Z,0.93
2023-05-14T14:05:05.752Z,2.10
2023-05-14T14:07:32.916Z,0.80
2023-05-14T14:10:02.018Z,1.23
2023-05-14T14:12:29.129Z,1.57
2023-05-14T14:14:56.417Z,1.20
2023-05-14T14:17:23.911Z,0.93
2023-05-14T14:19:51.128Z,1.03
2023-05-14T14:22:18.881Z,1.10
2023-05-14T14:24:46.242Z,0.70
2023-05-14T14:27:13.687Z,1.17
2023-05-14T14:29:40.998Z,0.80
2023-05-14T14:32:08.320Z,0.83
2023-05-14T14:34:35.616Z,1.07
2023-05-14T14:37:03.229Z,0.60
2023-05-14T14:39:30.744Z,1.20
2023-05-14T14:41:58.173Z,1.10
2023-05-14T14:44:25.473Z,1.27
2023-05-14T14:46:52.761Z,1.47
2023-05-14T14:49:20.100Z,1.73
2023-05-14T14:51:53.793Z,1.20
2023-05-14T14:54:21.192Z,5.70
2023-05-14T14:56:49.593Z,1.43
2023-05-14T14:59:16.952Z,2.00
2023-05-14T15:01:44.382Z,2.40
2023-05-14T15:04:11.925Z,2.87
2023-05-14T15:06:41.733Z,1.43
2023-05-14T15:09:11.886Z,2.10
2023-05-14T15:11:39.232Z,1.60
2023-05-14T15:14:06.501Z,1.77
2023-05-14T15:16:34.092Z,1.60
2023-05-14T15:19:01.562Z,1.53
2023-05-14T15:21:32.670Z,1.37
2023-05-14T15:24:00.465Z,1.20
2023-05-14T15:26:27.900Z,1.63
2023-05-14T15:28:55.343Z,1.30
2023-05-14T15:31:26.466Z,1.23
2023-05-14T15:34:04.005Z,1.43
2023-05-14T15:36:32.972Z,1.00
2023-05-14T15:41:41.534Z,1.20
2023-05-14T15:44:08.918Z,1.47
2023-05-14T15:46:47.110Z,1.60
2023-05-14T15:49:14.824Z,0.80
2023-05-14T15:51:42.369Z,2.73
2023-05-14T15:54:09.723Z,1.73
2023-05-14T15:56:36.964Z,2.63
2023-05-14T15:59:04.760Z,1.30
2023-05-14T16:01:58.436Z,6.03
2023-05-14T16:04:26.186Z,2.17
2023-05-14T16:06:53.970Z,1.40
2023-05-14T16:09:21.412Z,6.87
2023-05-14T16:11:48.892Z,2.40
2023-05-14T16:14:16.341Z,1.30
2023-05-14T16:16:44.242Z,2.60
2023-05-14T16:19:12.807Z,1.00
2023-05-14T16:21:40.165Z,0.90
2023-05-14T16:24:08.124Z,2.50
2023-05-14T16:26:39.684Z,1.20
2023-05-14T16:29:06.915Z,2.00
2023-05-14T16:31:34.450Z,0.93
2023-05-14T16:34:01.922Z,2.03
2023-05-14T16:36:29.358Z,1.43
2023-05-14T16:39:07.184Z,1.50
2023-05-14T16:41:36.197Z,3.00
2023-05-14T16:44:03.769Z,1.40
2023-05-14T16:46:31.363Z,2.23
2023-05-14T16:48:58.871Z,1.57
2023-05-14T16:51:26.266Z,1.83
2023-05-14T16:53:55.445Z,2.90
2023-05-14T16:56:23.456Z,1.70
2023-05-14T16:58:50.749Z,1.40
2023-05-14T17:01:18.268Z,1.53
2023-05-14T17:03:46.067Z,3.53
2023-05-14T17:06:13.340Z,1.87
2023-05-14T17:08:40.943Z,1.40
2023-05-14T17:11:08.470Z,1.87
2023-05-14T17:13:35.923Z,1.70
2023-05-14T17:16:03.636Z,1.60
2023-05-14T17:18:30.992Z,2.67
2023-05-14T17:20:58.684Z,1.67
2023-05-14T17:23:26.315Z,1.47
2023-05-14T17:25:56.879Z,1.83
2023-05-14T17:28:24.746Z,3.60
2023-05-14T17:30:52.538Z,2.00
2023-05-14T17:33:19.961Z,1.40
2023-05-14T17:35:47.752Z,2.00
2023-05-14T17:38:15.202Z,1.87
2023-05-14T17:40:43.123Z,1.90
2023-05-14T17:43:10.979Z,2.07
2023-05-14T17:45:46.713Z,1.70
2023-05-14T17:48:21.533Z,2.20
2023-05-14T17:50:49.164Z,2.53
2023-05-14T17:53:16.335Z,1.70
2023-05-14T17:55:44.082Z,2.00
2023-05-14T17:58:18.309Z,2.30
2023-05-14T18:00:45.873Z,5.33
2023-05-14T18:03:14.575Z,1.93
2023-05-14T18:05:42.073Z,1.90
2023-05-14T18:08:10.046Z,3.77
2023-05-14T18:10:37.861Z,2.20
2023-05-14T18:13:05.205Z,1.70
2023-05-14T18:15:32.637Z,3.83
2023-05-14T18:17:59.890Z,2.27
2023-05-14T18:20:27.853Z,1.97
2023-05-14T18:22:55.346Z,1.57
2023-05-14T18:25:23.121Z,2.00
2023-05-14T18:27:50.957Z,2.00
2023-05-14T18:30:18.303Z,2.00
2023-05-14T18:32:45.883Z,2.13
2023-05-14T18:35:13.671Z,2.40
2023-05-14T18:37:41.237Z,1.83
2023-05-14T18:40:09.480Z,1.60
2023-05-14T18:42:36.936Z,2.17
2023-05-14T18:45:04.915Z,2.13
2023-05-14T18:47:35.877Z,3.10
2023-05-14T18:50:05.174Z,4.13
2023-05-14T18:52:32.685Z,3.87
2023-05-14T18:55:00.148Z,5.33
2023-05-14T18:57:29.488Z,3.13
2023-05-14T18:59:56.932Z,2.63
2023-05-14T19:02:24.235Z,4.30
2023-05-14T19:04:53.166Z,3.40
2023-05-14T19:07:21.551Z,6.37
2023-05-14T19:09:48.905Z,3.23
2023-05-14T19:12:16.486Z,2.50
2023-05-14T19:14:44.014Z,2.53
2023-05-14T19:17:11.363Z,2.37
2023-05-14T19:19:39.663Z,3.80
2023-05-14T19:22:07.447Z,3.57
2023-05-14T19:24:35.119Z,2.40
2023-05-14T19:27:02.452Z,2.43
2023-05-14T19:29:29.599Z,1.73
2023-05-14T19:31:56.920Z,3.10
2023-05-14T19:34:24.439Z,2.07
2023-05-14T19:36:51.610Z,2.13
2023-05-14T19:39:18.784Z,2.20
2023-05-14T19:41:46.086Z,1.90
2023-05-14T19:44:13.563Z,2.50
2023-05-14T19:46:41.410Z,2.53
2023-05-14T19:49:09.229Z,2.00
2023-05-14T19:51:36.574Z,2.47
2023-05-14T19:54:04.320Z,1.93
2023-05-14T19:56:31.808Z,3.97
2023-05-14T19:58:59.121Z,1.90
2023-05-14T20:01:27.125Z,3.67
2023-05-14T20:03:54.460Z,3.20
2023-05-14T20:06:21.765Z,1.97
2023-05-14T20:08:49.173Z,1.80
2023-05-14T20:11:18.325Z,1.70
2023-05-14T20:13:45.946Z,2.33
2023-05-14T20:16:16.940Z,2.10
2023-05-14T20:18:45.078Z,3.17
2023-05-14T20:21:12.684Z,1.80
2023-05-14T20:23:40.584Z,1.87
2023-05-14T20:26:07.858Z,2.53
2023-05-14T20:28:35.374Z,2.07
2023-05-14T20:31:04.365Z,1.97
2023-05-14T20:33:31.805Z,1.73
2023-05-14T20:35:59.329Z,2.47
2023-05-14T20:38:29.590Z,2.00
2023-05-14T20:40:57.278Z,2.10
2023-05-14T20:43:24.568Z,1.77
2023-05-14T20:45:51.710Z,1.40
2023-05-14T20:48:21.528Z,2.00
2023-05-14T20:50:49.017Z,1.50
2023-05-14T20:53:16.740Z,1.70
2023-05-14T20:55:45.074Z,1.90
2023-05-14T20:58:12.895Z,1.80
2023-05-14T21:00:40.076Z,2.37
2023-05-14T21:03:07.400Z,3.40
2023-05-14T21:05:35.246Z,2.57
2023-05-14T21:08:02.835Z,2.20
2023-05-14T21:10:29.929Z,1.83
2023-05-14T21:12:57.518Z,3.50
2023-05-14T21:15:25.375Z,1.67
2023-05-14T21:17:53.113Z,2.53
2023-05-14T21:20:20.895Z,1.80
2023-05-14T21:22:48.095Z,1.63
2023-05-14T21:25:16.249Z,2.33
2023-05-14T21:27:43.615Z,1.70
2023-05-14T21:30:11.671Z,1.57
2023-05-14T21:32:39.332Z,1.70
2023-05-14T21:35:07.064Z,1.97
2023-05-14T21:37:34.533Z,1.67
2023-05-14T21:40:01.785Z,1.60
2023-05-14T21:42:29.151Z,1.90
2023-05-14T21:44:56.632Z,3.07
2023-05-14T21:47:24.337Z,1.73
2023-05-14T21:49:51.921Z,1.43
2023-05-14T21:52:19.163Z,1.97
2023-05-14T21:54:46.521Z,2.07
2023-05-14T21:57:13.815Z,1.80
2023-05-14T21:59:41.307Z,1.90
2023-05-14T22:02:08.738Z,2.00
2023-05-14T22:04:35.967Z,2.03
2023-05-14T22:07:03.653Z,1.83
2023-05-14T22:09:30.913Z,1.87
2023-05-14T22:11:58.690Z,1.90
2023-05-14T22:14:27.591Z,2.00
2023-05-14T22:16:55.554Z,1.80
2023-05-14T22:19:23.189Z,2.20
2023-05-14T22:21:50.374Z,3.47
2023-05-14T22:24:17.727Z,2.87
2023-05-14T22:26:45.241Z,2.33
2023-05-14T22:29:12.915Z,2.10
2023-05-14T22:31:40.507Z,2.27
2023-05-14T22:34:08.051Z,1.90
2023-05-14T22:36:35.627Z,2.30
2023-05-14T22:39:02.960Z,2.10
2023-05-14T22:41:31.160Z,2.60
2023-05-14T22:43:58.619Z,2.37
2023-05-14T22:46:26.217Z,1.87
2023-05-14T22:48:53.796Z,3.20
2023-05-14T22:51:21.237Z,2.10
2023-05-14T22:53:49.067Z,1.70
2023-05-14T22:56:16.655Z,2.00
2023-05-14T22:58:44.514Z,1.97
2023-05-14T23:01:12.014Z,1.87
2023-05-14T23:03:39.433Z,1.67
2023-05-14T23:06:07.294Z,2.23
2023-05-14T23:08:34.681Z,2.13
2023-05-14T23:11:02.093Z,2.00
2023-05-14T23:13:29.798Z,3.33
2023-05-14T23:15:57.481Z,2.77
2023-05-14T23:18:24.806Z,2.67
2023-05-14T23:20:52.517Z,2.23
2023-05-14T23:23:19.890Z,2.47
2023-05-14T23:25:47.395Z,2.13
2023-05-14T23:28:14.706Z,2.80
2023-05-14T23:30:42.016Z,2.37
2023-05-14T23:33:09.293Z,1.93
2023-05-14T23:35:38.120Z,2.00
2023-05-14T23:38:05.645Z,1.70
2023-05-14T23:40:33.078Z,3.37
2023-05-14T23:43:03.360Z,2.10
2023-05-14T23:45:30.891Z,1.90
2023-05-14T23:47:58.719Z,1.90
2023-05-14T23:50:26.677Z,2.27
2023-05-14T23:52:54.358Z,2.37
2023-05-14T23:55:22.188Z,2.43
2023-05-14T23:57:49.618Z,2.47
